sensor_id;sensor_type;location;lat;lon;timestamp;pressure;altitude;pressure_sealevel;temperature;humidity
49102;BME280;34913;47.520;19.186;2023-02-14T00:01:24;101624.41;;;-0.33;91.22
49102;BME280;34913;47.520;19.186;2023-02-14T00:03:49;101620.91;;;-0.32;91.21
49102;BME280;34913;47.520;19.186;2023-02-14T00:06:15;101616.78;;;-0.50;91.17
49102;BME280;34913;47.520;19.186;2023-02-14T00:08:40;101628.09;;;-0.51;92.23
49102;BME280;34913;47.520;19.186;2023-02-14T00:11:09;101622.84;;;-0.46;92.76
49102;BME280;34913;47.520;19.186;2023-02-14T00:13:35;101627.19;;;-0.48;92.20
49102;BME280;34913;47.520;19.186;2023-02-14T00:16:00;101622.94;;;-0.54;92.00
49102;BME280;34913;47.520;19.186;2023-02-14T00:18:26;101617.72;;;-0.57;93.04
49102;BME280;34913;47.520;19.186;2023-02-14T00:21:12;101609.88;;;-0.56;92.94
49102;BME280;34913;47.520;19.186;2023-02-14T00:23:37;101613.38;;;-0.55;93.24
49102;BME280;34913;47.520;19.186;2023-02-14T00:26:03;101609.84;;;-0.51;92.94
49102;BME280;34913;47.520;19.186;2023-02-14T00:28:28;101612.41;;;-0.48;92.75
49102;BME280;34913;47.520;19.186;2023-02-14T00:30:56;101603.78;;;-0.53;93.04
49102;BME280;34913;47.520;19.186;2023-02-14T00:33:21;101606.38;;;-0.51;93.41
49102;BME280;34913;47.520;19.186;2023-02-14T00:35:47;101596.00;;;-0.58;93.40
49102;BME280;34913;47.520;19.186;2023-02-14T00:38:12;101615.97;;;-0.53;92.46
49102;BME280;34913;47.520;19.186;2023-02-14T00:40:38;101622.88;;;-0.49;92.52
49102;BME280;34913;47.520;19.186;2023-02-14T00:43:03;101629.78;;;-0.44;92.29
49102;BME280;34913;47.520;19.186;2023-02-14T00:45:29;101634.22;;;-0.52;93.23
49102;BME280;34913;47.520;19.186;2023-02-14T00:47:54;101629.88;;;-0.56;94.25
49102;BME280;34913;47.520;19.186;2023-02-14T00:50:20;101630.75;;;-0.56;93.70
49102;BME280;34913;47.520;19.186;2023-02-14T00:52:45;101635.25;;;-0.71;94.56
49102;BME280;34913;47.520;19.186;2023-02-14T00:55:11;101627.53;;;-0.79;94.69
49102;BME280;34913;47.520;19.186;2023-02-14T00:57:36;101630.94;;;-0.74;94.66
49102;BME280;34913;47.520;19.186;2023-02-14T01:00:03;101631.78;;;-0.72;94.62
49102;BME280;34913;47.520;19.186;2023-02-14T01:02:28;101624.81;;;-0.68;94.14
49102;BME280;34913;47.520;19.186;2023-02-14T01:04:54;101619.56;;;-0.65;93.88
49102;BME280;34913;47.520;19.186;2023-02-14T01:07:19;101618.69;;;-0.66;93.48
49102;BME280;34913;47.520;19.186;2023-02-14T01:09:47;101615.28;;;-0.72;93.43
49102;BME280;34913;47.520;19.186;2023-02-14T01:12:12;101605.81;;;-0.78;92.87
49102;BME280;34913;47.520;19.186;2023-02-14T01:14:38;101599.72;;;-0.77;92.63
49102;BME280;34913;47.520;19.186;2023-02-14T01:17:03;101598.00;;;-0.81;92.35
49102;BME280;34913;47.520;19.186;2023-02-14T01:19:29;101598.88;;;-0.82;92.37
49102;BME280;34913;47.520;19.186;2023-02-14T01:21:54;101591.06;;;-0.82;92.64
49102;BME280;34913;47.520;19.186;2023-02-14T01:24:20;101590.19;;;-0.81;92.13
49102;BME280;34913;47.520;19.186;2023-02-14T01:26:45;101587.56;;;-0.81;92.34
49102;BME280;34913;47.520;19.186;2023-02-14T01:29:11;101594.53;;;-0.81;92.28
49102;BME280;34913;47.520;19.186;2023-02-14T01:31:36;101590.22;;;-0.84;92.00
49102;BME280;34913;47.520;19.186;2023-02-14T01:34:02;101592.03;;;-0.91;92.15
49102;BME280;34913;47.520;19.186;2023-02-14T01:36:31;101585.13;;;-0.96;92.53
49102;BME280;34913;47.520;19.186;2023-02-14T01:38:58;101584.25;;;-0.97;93.17
49102;BME280;34913;47.520;19.186;2023-02-14T01:41:26;101591.22;;;-0.97;92.69
49102;BME280;34913;47.520;19.186;2023-02-14T01:46:18;101592.22;;;-1.12;93.48
49102;BME280;34913;47.520;19.186;2023-02-14T01:48:44;101597.44;;;-1.12;93.54
49102;BME280;34913;47.520;19.186;2023-02-14T01:51:10;101591.31;;;-1.08;93.75
49102;BME280;34913;47.520;19.186;2023-02-14T01:53:36;101591.34;;;-1.13;93.52
49102;BME280;34913;47.520;19.186;2023-02-14T01:56:08;101585.31;;;-1.16;93.65
49102;BME280;34913;47.520;19.186;2023-02-14T01:58:38;101588.78;;;-1.16;93.78
49102;BME280;34913;47.520;19.186;2023-02-14T02:01:11;101591.41;;;-1.20;93.90
49102;BME280;34913;47.520;19.186;2023-02-14T02:03:45;101581.91;;;-1.23;94.46
49102;BME280;34913;47.520;19.186;2023-02-14T02:06:16;101580.16;;;-1.22;94.81
49102;BME280;34913;47.520;19.186;2023-02-14T02:08:53;101576.66;;;-1.17;94.64
49102;BME280;34913;47.520;19.186;2023-02-14T02:11:23;101574.00;;;-1.14;93.25
49102;BME280;34913;47.520;19.186;2023-02-14T02:13:49;101563.56;;;-1.12;92.37
49102;BME280;34913;47.520;19.186;2023-02-14T02:16:34;101560.94;;;-1.09;92.41
49102;BME280;34913;47.520;19.186;2023-02-14T02:22:00;101565.34;;;-1.17;92.62
49102;BME280;34913;47.520;19.186;2023-02-14T02:27:20;101562.88;;;-1.32;93.66
49102;BME280;34913;47.520;19.186;2023-02-14T02:35:40;101554.31;;;-1.42;93.67
49102;BME280;34913;47.520;19.186;2023-02-14T02:38:54;101555.16;;;-1.42;93.74
49102;BME280;34913;47.520;19.186;2023-02-14T02:44:20;101562.13;;;-1.47;92.41
49102;BME280;34913;47.520;19.186;2023-02-14T02:55:26;101548.25;;;-1.50;92.65
49102;BME280;34913;47.520;19.186;2023-02-14T02:57:54;101556.94;;;-1.47;92.79
49102;BME280;34913;47.520;19.186;2023-02-14T03:00:21;101566.47;;;-1.47;93.21
49102;BME280;34913;47.520;19.186;2023-02-14T03:02:51;101563.03;;;-1.49;92.92
49102;BME280;34913;47.520;19.186;2023-02-14T03:05:38;101561.28;;;-1.47;92.83
49102;BME280;34913;47.520;19.186;2023-02-14T03:08:04;101561.25;;;-1.44;92.87
49102;BME280;34913;47.520;19.186;2023-02-14T03:10:33;101557.69;;;-1.35;93.01
49102;BME280;34913;47.520;19.186;2023-02-14T03:27:33;101547.34;;;-1.42;92.12
49102;BME280;34913;47.520;19.186;2023-02-14T03:30:35;101548.31;;;-1.55;92.89
49102;BME280;34913;47.520;19.186;2023-02-14T03:33:21;101547.41;;;-1.51;94.30
49102;BME280;34913;47.520;19.186;2023-02-14T03:36:01;101551.69;;;-1.42;94.47
49102;BME280;34913;47.520;19.186;2023-02-14T03:41:13;101550.78;;;-1.38;94.43
49102;BME280;34913;47.520;19.186;2023-02-14T03:43:46;101553.34;;;-1.35;95.88
49102;BME280;34913;47.520;19.186;2023-02-14T03:46:48;101554.25;;;-1.37;95.86
49102;BME280;34913;47.520;19.186;2023-02-14T03:49:18;101551.66;;;-1.39;95.49
49102;BME280;34913;47.520;19.186;2023-02-14T03:51:48;101549.97;;;-1.46;94.75
49102;BME280;34913;47.520;19.186;2023-02-14T03:54:16;101562.13;;;-1.45;94.15
49102;BME280;34913;47.520;19.186;2023-02-14T03:56:49;101549.97;;;-1.46;94.36
49102;BME280;34913;47.520;19.186;2023-02-14T03:59:19;101556.88;;;-1.41;95.25
49102;BME280;34913;47.520;19.186;2023-02-14T04:04:19;101556.06;;;-1.47;93.97
49102;BME280;34913;47.520;19.186;2023-02-14T04:06:46;101560.44;;;-1.54;93.64
49102;BME280;34913;47.520;19.186;2023-02-14T04:09:12;101550.00;;;-1.49;93.81
49102;BME280;34913;47.520;19.186;2023-02-14T04:11:37;101550.81;;;-1.44;93.58
49102;BME280;34913;47.520;19.186;2023-02-14T04:14:04;101560.38;;;-1.45;93.49
49102;BME280;34913;47.520;19.186;2023-02-14T04:16:29;101546.50;;;-1.47;93.22
49102;BME280;34913;47.520;19.186;2023-02-14T04:18:55;101554.31;;;-1.47;92.76
49102;BME280;34913;47.520;19.186;2023-02-14T04:21:39;101556.06;;;-1.50;92.63
49102;BME280;34913;47.520;19.186;2023-02-14T04:24:05;101553.53;;;-1.55;92.83
49102;BME280;34913;47.520;19.186;2023-02-14T04:26:30;101560.47;;;-1.55;93.00
49102;BME280;34913;47.520;19.186;2023-02-14T04:28:56;101561.31;;;-1.53;94.01
49102;BME280;34913;47.520;19.186;2023-02-14T04:31:21;101561.34;;;-1.55;95.16
49102;BME280;34913;47.520;19.186;2023-02-14T04:33:47;101558.69;;;-1.52;95.25
49102;BME280;34913;47.520;19.186;2023-02-14T04:36:14;101557.03;;;-1.57;95.23
49102;BME280;34913;47.520;19.186;2023-02-14T04:38:40;101559.63;;;-1.57;96.60
49102;BME280;34913;47.520;19.186;2023-02-14T04:41:05;101563.91;;;-1.52;96.64
49102;BME280;34913;47.520;19.186;2023-02-14T04:43:31;101565.66;;;-1.52;95.77
49102;BME280;34913;47.520;19.186;2023-02-14T04:45:56;101563.91;;;-1.53;94.25
49102;BME280;34913;47.520;19.186;2023-02-14T04:48:22;101557.88;;;-1.55;93.40
49102;BME280;34913;47.520;19.186;2023-02-14T04:50:54;101558.75;;;-1.56;93.92
49102;BME280;34913;47.520;19.186;2023-02-14T04:53:20;101553.53;;;-1.56;93.60
49102;BME280;34913;47.520;19.186;2023-02-14T04:55:49;101549.28;;;-1.65;93.42
49102;BME280;34913;47.520;19.186;2023-02-14T04:58:14;101553.63;;;-1.69;93.81
49102;BME280;34913;47.520;19.186;2023-02-14T05:00:40;101548.44;;;-1.70;94.58
49102;BME280;34913;47.520;19.186;2023-02-14T05:03:06;101556.34;;;-1.81;95.35
49102;BME280;34913;47.520;19.186;2023-02-14T05:05:31;101559.78;;;-1.82;96.17
49102;BME280;34913;47.520;19.186;2023-02-14T05:07:57;101557.16;;;-1.77;96.28
49102;BME280;34913;47.520;19.186;2023-02-14T05:10:22;101556.28;;;-1.76;94.88
49102;BME280;34913;47.520;19.186;2023-02-14T05:12:48;101553.66;;;-1.72;94.22
49102;BME280;34913;47.520;19.186;2023-02-14T05:15:13;101551.91;;;-1.74;92.88
49102;BME280;34913;47.520;19.186;2023-02-14T05:17:38;101548.44;;;-1.75;93.40
49102;BME280;34913;47.520;19.186;2023-02-14T05:20:05;101559.78;;;-1.80;93.06
49102;BME280;34913;47.520;19.186;2023-02-14T05:22:30;101552.88;;;-1.86;93.66
49102;BME280;34913;47.520;19.186;2023-02-14T05:24:56;101558.06;;;-1.83;93.72
49102;BME280;34913;47.520;19.186;2023-02-14T05:27:21;101554.56;;;-1.77;93.59
49102;BME280;34913;47.520;19.186;2023-02-14T05:29:47;101550.25;;;-1.80;93.45
49102;BME280;34913;47.520;19.186;2023-02-14T05:32:12;101564.09;;;-1.78;93.42
49102;BME280;34913;47.520;19.186;2023-02-14T05:34:38;101556.34;;;-1.85;93.67
49102;BME280;34913;47.520;19.186;2023-02-14T05:37:03;101555.50;;;-1.86;93.53
49102;BME280;34913;47.520;19.186;2023-02-14T05:39:29;101558.94;;;-1.81;94.50
49102;BME280;34913;47.520;19.186;2023-02-14T05:41:54;101558.03;;;-1.77;94.41
49102;BME280;34913;47.520;19.186;2023-02-14T05:44:21;101558.91;;;-1.78;93.01
49102;BME280;34913;47.520;19.186;2023-02-14T05:46:46;101564.97;;;-1.82;92.41
49102;BME280;34913;47.520;19.186;2023-02-14T05:49:11;101552.81;;;-1.77;92.13
49102;BME280;34913;47.520;19.186;2023-02-14T05:51:37;101552.84;;;-1.80;91.58
49102;BME280;34913;47.520;19.186;2023-02-14T05:54:02;101561.47;;;-1.75;91.97
49102;BME280;34913;47.520;19.186;2023-02-14T05:56:28;101555.47;;;-1.81;91.70
49102;BME280;34913;47.520;19.186;2023-02-14T05:58:53;101563.31;;;-1.90;92.16
49102;BME280;34913;47.520;19.186;2023-02-14T06:01:19;101563.38;;;-2.01;92.75
49102;BME280;34913;47.520;19.186;2023-02-14T06:03:44;101566.00;;;-2.03;94.52
49102;BME280;34913;47.520;19.186;2023-02-14T06:06:10;101571.13;;;-1.92;95.37
49102;BME280;34913;47.520;19.186;2023-02-14T06:08:35;101578.88;;;-1.84;95.31
49102;BME280;34913;47.520;19.186;2023-02-14T06:11:01;101574.53;;;-1.82;95.63
49102;BME280;34913;47.520;19.186;2023-02-14T06:13:26;101584.91;;;-1.73;96.09
49102;BME280;34913;47.520;19.186;2023-02-14T06:15:52;101586.59;;;-1.67;96.82
49102;BME280;34913;47.520;19.186;2023-02-14T06:18:17;101587.44;;;-1.67;97.34
49102;BME280;34913;47.520;19.186;2023-02-14T06:20:43;101592.63;;;-1.62;97.80
49102;BME280;34913;47.520;19.186;2023-02-14T06:23:08;101600.44;;;-1.58;98.66
49102;BME280;34913;47.520;19.186;2023-02-14T06:25:34;101604.69;;;-1.51;97.61
49102;BME280;34913;47.520;19.186;2023-02-14T06:27:59;101615.97;;;-1.49;96.93
49102;BME280;34913;47.520;19.186;2023-02-14T06:30:25;101609.09;;;-1.57;96.21
49102;BME280;34913;47.520;19.186;2023-02-14T06:32:51;101617.75;;;-1.54;98.70
49102;BME280;34913;47.520;19.186;2023-02-14T06:35:17;101625.56;;;-1.58;100.00
49102;BME280;34913;47.520;19.186;2023-02-14T06:37:42;101622.09;;;-1.59;100.00
49102;BME280;34913;47.520;19.186;2023-02-14T06:40:10;101629.81;;;-1.45;100.00
49102;BME280;34913;47.520;19.186;2023-02-14T06:42:36;101629.78;;;-1.37;99.99
49102;BME280;34913;47.520;19.186;2023-02-14T06:45:03;101624.50;;;-1.28;100.00
49102;BME280;34913;47.520;19.186;2023-02-14T06:47:29;101619.22;;;-1.18;99.53
49102;BME280;34913;47.520;19.186;2023-02-14T06:49:54;101615.66;;;-1.12;98.83
49102;BME280;34913;47.520;19.186;2023-02-14T06:52:20;101612.13;;;-1.02;98.80
49102;BME280;34913;47.520;19.186;2023-02-14T06:54:45;101623.25;;;-0.88;98.80
49102;BME280;34913;47.520;19.186;2023-02-14T06:57:11;101621.50;;;-0.84;98.00
49102;BME280;34913;47.520;19.186;2023-02-14T06:59:37;101632.78;;;-0.83;98.58
49102;BME280;34913;47.520;19.186;2023-02-14T07:02:02;101631.88;;;-0.79;99.79
49102;BME280;34913;47.520;19.186;2023-02-14T07:04:28;101633.47;;;-0.66;100.00
49102;BME280;34913;47.520;19.186;2023-02-14T07:06:54;101639.38;;;-0.47;100.00
49102;BME280;34913;47.520;19.186;2023-02-14T07:09:19;101634.03;;;-0.37;100.00
49102;BME280;34913;47.520;19.186;2023-02-14T07:11:45;101632.13;;;-0.24;100.00
49102;BME280;34913;47.520;19.186;2023-02-14T07:14:11;101628.53;;;-0.12;100.00
49102;BME280;34913;47.520;19.186;2023-02-14T07:16:36;101637.88;;;0.04;100.00
49102;BME280;34913;47.520;19.186;2023-02-14T07:19:02;101642.91;;;0.19;100.00
49102;BME280;34913;47.520;19.186;2023-02-14T07:21:27;101639.22;;;0.34;100.00
49102;BME280;34913;47.520;19.186;2023-02-14T07:23:53;101638.13;;;0.49;99.46
49102;BME280;34913;47.520;19.186;2023-02-14T07:26:18;101644.00;;;0.65;98.52
49102;BME280;34913;47.520;19.186;2023-02-14T07:28:44;101648.03;;;0.84;98.61
49102;BME280;34913;47.520;19.186;2023-02-14T07:31:10;101648.63;;;1.03;98.18
49102;BME280;34913;47.520;19.186;2023-02-14T07:33:37;101643.16;;;1.15;96.46
49102;BME280;34913;47.520;19.186;2023-02-14T07:36:04;101646.47;;;1.25;95.10
49102;BME280;34913;47.520;19.186;2023-02-14T07:38:30;101647.91;;;1.43;94.82
49102;BME280;34913;47.520;19.186;2023-02-14T07:40:55;101648.44;;;1.60;94.03
49102;BME280;34913;47.520;19.186;2023-02-14T07:43:21;101651.56;;;1.79;93.14
49102;BME280;34913;47.520;19.186;2023-02-14T07:45:46;101647.69;;;1.98;91.47
49102;BME280;34913;47.520;19.186;2023-02-14T07:48:13;101654.25;;;2.17;91.33
49102;BME280;34913;47.520;19.186;2023-02-14T07:50:38;101653.84;;;2.36;89.90
49102;BME280;34913;47.520;19.186;2023-02-14T07:53:04;101656.78;;;2.59;89.36
49102;BME280;34913;47.520;19.186;2023-02-14T07:55:29;101659.81;;;2.79;88.07
49102;BME280;34913;47.520;19.186;2023-02-14T07:57:55;101661.13;;;2.97;85.48
49102;BME280;34913;47.520;19.186;2023-02-14T08:00:20;101663.41;;;3.11;85.21
49102;BME280;34913;47.520;19.186;2023-02-14T08:02:46;101654.31;;;3.26;85.36
49102;BME280;34913;47.520;19.186;2023-02-14T08:05:13;101660.97;;;3.38;84.19
49102;BME280;34913;47.520;19.186;2023-02-14T08:07:38;101661.63;;;3.46;83.81
49102;BME280;34913;47.520;19.186;2023-02-14T08:10:05;101659.41;;;3.63;82.97
49102;BME280;34913;47.520;19.186;2023-02-14T08:12:30;101650.03;;;3.85;82.33
49102;BME280;34913;47.520;19.186;2023-02-14T08:15:14;101649.16;;;4.16;80.40
49102;BME280;34913;47.520;19.186;2023-02-14T08:17:58;101652.88;;;4.38;79.25
49102;BME280;34913;47.520;19.186;2023-02-14T08:20:24;101654.97;;;4.55;78.53
49102;BME280;34913;47.520;19.186;2023-02-14T08:22:49;101652.66;;;4.72;77.79
49102;BME280;34913;47.520;19.186;2023-02-14T08:25:14;101655.16;;;4.77;76.87
49102;BME280;34913;47.520;19.186;2023-02-14T08:27:40;101659.22;;;4.87;75.79
49102;BME280;34913;47.520;19.186;2023-02-14T08:30:06;101651.19;;;4.92;75.80
49102;BME280;34913;47.520;19.186;2023-02-14T08:32:32;101660.78;;;5.19;74.52
49102;BME280;34913;47.520;19.186;2023-02-14T08:34:58;101655.84;;;5.35;74.35
49102;BME280;34913;47.520;19.186;2023-02-14T08:37:24;101655.53;;;5.44;73.53
49102;BME280;34913;47.520;19.186;2023-02-14T08:39:49;101658.38;;;5.63;73.19
49102;BME280;34913;47.520;19.186;2023-02-14T08:42:15;101652.84;;;5.71;72.38
49102;BME280;34913;47.520;19.186;2023-02-14T08:44:40;101654.97;;;5.84;71.95
49102;BME280;34913;47.520;19.186;2023-02-14T08:47:05;101656.38;;;5.95;71.18
49102;BME280;34913;47.520;19.186;2023-02-14T08:49:31;101655.81;;;6.10;70.74
49102;BME280;34913;47.520;19.186;2023-02-14T08:51:56;101653.22;;;6.32;69.96
49102;BME280;34913;47.520;19.186;2023-02-14T08:54:22;101655.78;;;6.57;68.81
49102;BME280;34913;47.520;19.186;2023-02-14T08:56:47;101651.53;;;6.75;67.93
49102;BME280;34913;47.520;19.186;2023-02-14T08:59:13;101649.03;;;6.71;67.24
49102;BME280;34913;47.520;19.186;2023-02-14T09:01:38;101663.06;;;6.94;67.27
49102;BME280;34913;47.520;19.186;2023-02-14T09:04:04;101650.81;;;7.13;66.15
49102;BME280;34913;47.520;19.186;2023-02-14T09:06:29;101646.47;;;7.33;64.95
49102;BME280;34913;47.520;19.186;2023-02-14T09:08:55;101648.44;;;7.07;65.24
49102;BME280;34913;47.520;19.186;2023-02-14T09:11:22;101654.56;;;6.87;66.05
49102;BME280;34913;47.520;19.186;2023-02-14T09:13:50;101646.50;;;7.11;65.71
49102;BME280;34913;47.520;19.186;2023-02-14T09:16:18;101650.09;;;7.30;65.30
49102;BME280;34913;47.520;19.186;2023-02-14T09:18:45;101652.03;;;7.47;64.49
49102;BME280;34913;47.520;19.186;2023-02-14T09:21:15;101652.28;;;7.41;63.80
49102;BME280;34913;47.520;19.186;2023-02-14T09:23:41;101644.09;;;7.06;64.65
49102;BME280;34913;47.520;19.186;2023-02-14T09:26:09;101651.31;;;7.01;66.20
49102;BME280;34913;47.520;19.186;2023-02-14T09:28:36;101652.38;;;6.97;65.56
49102;BME280;34913;47.520;19.186;2023-02-14T09:33:42;101654.47;;;7.31;65.45
49102;BME280;34913;47.520;19.186;2023-02-14T09:36:26;101655.06;;;7.38;64.99
49102;BME280;34913;47.520;19.186;2023-02-14T09:38:52;101658.06;;;7.50;65.36
49102;BME280;34913;47.520;19.186;2023-02-14T09:46:56;101663.25;;;7.52;63.06
49102;BME280;34913;47.520;19.186;2023-02-14T09:49:37;101656.97;;;7.54;63.22
49102;BME280;34913;47.520;19.186;2023-02-14T09:52:05;101657.84;;;7.55;62.08
49102;BME280;34913;47.520;19.186;2023-02-14T09:54:34;101656.31;;;7.70;62.07
49102;BME280;34913;47.520;19.186;2023-02-14T09:57:12;101652.91;;;7.87;61.33
49102;BME280;34913;47.520;19.186;2023-02-14T10:00:03;101665.34;;;7.64;63.18
49102;BME280;34913;47.520;19.186;2023-02-14T10:05:21;101658.75;;;7.54;62.81
49102;BME280;34913;47.520;19.186;2023-02-14T10:10:28;101663.38;;;7.69;62.04
49102;BME280;34913;47.520;19.186;2023-02-14T10:13:04;101649.03;;;7.75;61.65
49102;BME280;34913;47.520;19.186;2023-02-14T10:15:35;101648.28;;;7.92;61.38
49102;BME280;34913;47.520;19.186;2023-02-14T10:18:19;101655.50;;;8.46;59.71
49102;BME280;34913;47.520;19.186;2023-02-14T10:21:06;101641.44;;;8.25;59.84
49102;BME280;34913;47.520;19.186;2023-02-14T10:23:34;101644.94;;;8.45;60.10
49102;BME280;34913;47.520;19.186;2023-02-14T10:26:47;101646.63;;;8.83;59.06
49102;BME280;34913;47.520;19.186;2023-02-14T10:28:54;101643.19;;;8.81;56.54
49102;BME280;34913;47.520;19.186;2023-02-14T10:31:31;101647.44;;;8.66;57.88
49102;BME280;34913;47.520;19.186;2023-02-14T10:34:14;101638.06;;;8.78;58.04
49102;BME280;34913;47.520;19.186;2023-02-14T10:47:58;101617.81;;;9.46;54.97
49102;BME280;34913;47.520;19.186;2023-02-14T10:55:43;101609.03;;;9.29;55.71
49102;BME280;34913;47.520;19.186;2023-02-14T10:58:13;101616.63;;;9.52;54.56
49102;BME280;34913;47.520;19.186;2023-02-14T11:03:16;101615.84;;;8.81;56.40
49102;BME280;34913;47.520;19.186;2023-02-14T11:05:45;101612.28;;;8.82;56.85
49102;BME280;34913;47.520;19.186;2023-02-14T11:08:26;101609.91;;;8.76;56.51
49102;BME280;34913;47.520;19.186;2023-02-14T11:10:54;101611.03;;;8.72;56.31
49102;BME280;34913;47.520;19.186;2023-02-14T11:13:34;101606.78;;;8.67;56.92
49102;BME280;34913;47.520;19.186;2023-02-14T11:16:07;101614.03;;;8.64;57.08
49102;BME280;34913;47.520;19.186;2023-02-14T11:18:33;101614.97;;;8.63;57.38
49102;BME280;34913;47.520;19.186;2023-02-14T11:21:15;101616.06;;;8.76;56.49
49102;BME280;34913;47.520;19.186;2023-02-14T11:23:48;101616.06;;;8.76;55.55
49102;BME280;34913;47.520;19.186;2023-02-14T11:26:24;101616.59;;;8.65;56.75
49102;BME280;34913;47.520;19.186;2023-02-14T11:28:59;101619.81;;;8.72;56.99
49102;BME280;34913;47.520;19.186;2023-02-14T11:31:33;101609.63;;;8.99;56.41
49102;BME280;34913;47.520;19.186;2023-02-14T11:34:00;101601.28;;;9.24;55.97
49102;BME280;34913;47.520;19.186;2023-02-14T11:36:28;101608.63;;;9.19;55.36
49102;BME280;34913;47.520;19.186;2023-02-14T11:39:24;101608.41;;;9.06;55.76
49102;BME280;34913;47.520;19.186;2023-02-14T11:41:55;101613.50;;;9.61;55.05
49102;BME280;34913;47.520;19.186;2023-02-14T11:44:23;101607.84;;;10.00;53.75
49102;BME280;34913;47.520;19.186;2023-02-14T11:46:53;101604.34;;;10.00;53.85
49102;BME280;34913;47.520;19.186;2023-02-14T11:49:24;101602.06;;;10.25;52.85
49102;BME280;34913;47.520;19.186;2023-02-14T11:51:51;101602.66;;;10.15;52.19
49102;BME280;34913;47.520;19.186;2023-02-14T11:54:33;101606.66;;;9.90;53.14
49102;BME280;34913;47.520;19.186;2023-02-14T11:57:10;101601.16;;;9.93;53.25
49102;BME280;34913;47.520;19.186;2023-02-14T11:59:50;101602.28;;;9.89;53.01
49102;BME280;34913;47.520;19.186;2023-02-14T12:05:43;101592.66;;;9.20;55.25
49102;BME280;34913;47.520;19.186;2023-02-14T12:08:09;101599.84;;;9.18;54.80
49102;BME280;34913;47.520;19.186;2023-02-14T12:10:38;101604.59;;;8.94;55.40
49102;BME280;34913;47.520;19.186;2023-02-14T12:26:44;101578.88;;;9.14;55.34
49102;BME280;34913;47.520;19.186;2023-02-14T12:31:51;101565.41;;;9.18;54.75
49102;BME280;34913;47.520;19.186;2023-02-14T12:34:17;101575.38;;;9.13;54.45
49102;BME280;34913;47.520;19.186;2023-02-14T12:47:21;101548.78;;;9.15;54.79
49102;BME280;34913;47.520;19.186;2023-02-14T12:58:39;101555.75;;;9.17;54.20
49102;BME280;34913;47.520;19.186;2023-02-14T13:01:25;101546.19;;;9.31;52.72
49102;BME280;34913;47.520;19.186;2023-02-14T13:06:53;101540.06;;;9.13;53.36
49102;BME280;34913;47.520;19.186;2023-02-14T13:09:39;101537.81;;;9.05;52.99
49102;BME280;34913;47.520;19.186;2023-02-14T13:15:25;101546.88;;;9.51;52.08
49102;BME280;34913;47.520;19.186;2023-02-14T13:20:49;101534.41;;;9.85;50.80
49102;BME280;34913;47.520;19.186;2023-02-14T13:23:24;101546.88;;;9.51;51.13
49102;BME280;34913;47.520;19.186;2023-02-14T13:25:57;101535.94;;;9.25;52.11
49102;BME280;34913;47.520;19.186;2023-02-14T13:28:26;101531.44;;;9.09;52.34
49102;BME280;34913;47.520;19.186;2023-02-14T13:30:54;101524.28;;;8.94;52.32
49102;BME280;34913;47.520;19.186;2023-02-14T13:35:57;101535.88;;;9.09;52.63
49102;BME280;34913;47.520;19.186;2023-02-14T13:38:24;101535.31;;;9.52;52.10
49102;BME280;34913;47.520;19.186;2023-02-14T13:40:51;101539.25;;;9.61;50.42
49102;BME280;34913;47.520;19.186;2023-02-14T13:46:19;101531.63;;;9.55;50.93
49102;BME280;34913;47.520;19.186;2023-02-14T13:49:15;101528.75;;;9.27;51.32
49102;BME280;34913;47.520;19.186;2023-02-14T13:51:51;101519.31;;;9.54;51.58
49102;BME280;34913;47.520;19.186;2023-02-14T13:54:46;101526.72;;;9.65;50.34
49102;BME280;34913;47.520;19.186;2023-02-14T13:57:27;101521.25;;;9.68;50.76
49102;BME280;34913;47.520;19.186;2023-02-14T14:02:49;101527.25;;;9.38;50.92
49102;BME280;34913;47.520;19.186;2023-02-14T14:10:48;101530.03;;;9.19;51.28
49102;BME280;34913;47.520;19.186;2023-02-14T14:16:25;101531.28;;;9.45;51.25
49102;BME280;34913;47.520;19.186;2023-02-14T14:21:38;101538.75;;;9.70;49.67
49102;BME280;34913;47.520;19.186;2023-02-14T14:26:39;101534.06;;;9.60;49.76
49102;BME280;34913;47.520;19.186;2023-02-14T14:29:21;101543.28;;;9.52;50.74
49102;BME280;34913;47.520;19.186;2023-02-14T14:31:48;101530.47;;;9.28;50.64
49102;BME280;34913;47.520;19.186;2023-02-14T14:34:21;101525.97;;;9.12;51.84
49102;BME280;34913;47.520;19.186;2023-02-14T14:36:49;101519.13;;;8.91;52.44
49102;BME280;34913;47.520;19.186;2023-02-14T14:39:26;101524.53;;;8.72;52.51
49102;BME280;34913;47.520;19.186;2023-02-14T14:41:52;101514.22;;;8.49;52.92
49102;BME280;34913;47.520;19.186;2023-02-14T14:44:17;101520.84;;;8.57;53.43
49102;BME280;34913;47.520;19.186;2023-02-14T14:46:44;101527.84;;;8.58;53.62
49102;BME280;34913;47.520;19.186;2023-02-14T14:49:10;101528.19;;;8.70;53.85
49102;BME280;34913;47.520;19.186;2023-02-14T14:51:36;101519.53;;;8.66;53.43
49102;BME280;34913;47.520;19.186;2023-02-14T14:54:12;101523.19;;;8.46;53.94
49102;BME280;34913;47.520;19.186;2023-02-14T14:56:47;101520.19;;;8.35;54.22
49102;BME280;34913;47.520;19.186;2023-02-14T15:01:47;101525.13;;;8.24;53.94
49102;BME280;34913;47.520;19.186;2023-02-14T15:04:18;101521.91;;;8.17;54.56
49102;BME280;34913;47.520;19.186;2023-02-14T15:06:49;101524.00;;;8.10;55.70
49102;BME280;34913;47.520;19.186;2023-02-14T15:09:17;101518.94;;;8.06;55.47
49102;BME280;34913;47.520;19.186;2023-02-14T15:11:44;101519.94;;;8.03;55.84
49102;BME280;34913;47.520;19.186;2023-02-14T15:14:33;101521.44;;;8.09;55.24
49102;BME280;34913;47.520;19.186;2023-02-14T15:17:03;101524.16;;;8.07;55.50
49102;BME280;34913;47.520;19.186;2023-02-14T15:19:36;101519.84;;;8.05;55.70
49102;BME280;34913;47.520;19.186;2023-02-14T15:22:25;101526.88;;;8.06;55.25
49102;BME280;34913;47.520;19.186;2023-02-14T15:24:52;101519.94;;;8.03;56.18
49102;BME280;34913;47.520;19.186;2023-02-14T15:27:20;101513.22;;;7.96;56.49